Terminal Aerodrome Forecast
Issued by NWS

Home | Current Version | Previous Version | Text Only | Print | Product List | Glossary On
Versions: 1 2 3 4 5 6 7 8 9 10 11 12
000
FTAK31 PAJN 250500
TAFAPG
TAF
PAPG 250520Z 2506/2606 00000KT P6SM BCFG VCSH FEW005 SCT070 OVC080
      TEMPO 2512/2516 3SM BR SCT003
     FM251800 05005KT P6SM BKN060
     FM252100 VRB03KT P6SM SCT060
      AMD LTD TO CLD VIS AND WIND 2506/2515=

USA.gov is the U.S. government's official web portal to all federal, state and local government web resources and services.